createdAt,value
2023-04-16T00:01:50.736Z,100742.11
2023-04-16T00:04:17.699Z,100743.04
2023-04-16T00:06:44.336Z,100745.20
2023-04-16T00:09:11.428Z,100747.34
2023-04-16T00:11:38.924Z,100751.29
2023-04-16T00:14:05.550Z,100754.54
2023-04-16T00:16:32.671Z,100756.30
2023-04-16T00:18:59.507Z,100759.33
2023-04-16T00:21:26.984Z,100753.35
2023-04-16T00:23:53.701Z,100754.73
2023-04-16T00:26:20.580Z,100751.23
2023-04-16T00:28:47.721Z,100751.58
2023-04-16T00:31:14.470Z,100752.62
2023-04-16T00:33:41.999Z,100756.29
2023-04-16T00:36:09.698Z,100755.48
2023-04-16T00:38:36.594Z,100752.88
2023-04-16T00:41:04.259Z,100754.30
2023-04-16T00:43:31.241Z,100761.81
2023-04-16T00:45:58.356Z,100765.64
2023-04-16T00:48:27.465Z,100764.05
2023-04-16T00:50:54.983Z,100767.65
2023-04-16T00:53:22.801Z,100762.46
2023-04-16T00:55:49.994Z,100765.96
2023-04-16T00:58:17.680Z,100763.81
2023-04-16T01:00:44.321Z,100763.38
2023-04-16T01:03:11.113Z,100762.16
2023-04-16T01:05:38.200Z,100762.72
2023-04-16T01:08:05.598Z,100767.41
2023-04-16T01:10:32.434Z,100764.19
2023-04-16T01:12:59.374Z,100768.02
2023-04-16T01:15:26.559Z,100767.71
2023-04-16T01:17:53.357Z,100770.16
2023-04-16T01:20:20.122Z,100769.91
2023-04-16T01:22:46.842Z,100767.94
2023-04-16T01:25:15.334Z,100769.73
2023-04-16T01:27:42.167Z,100768.00
2023-04-16T01:30:09.518Z,100771.44
2023-04-16T01:32:49.910Z,100768.03
2023-04-16T01:35:17.775Z,100772.40
2023-04-16T01:37:44.470Z,100773.02
2023-04-16T01:40:11.085Z,100772.86
2023-04-16T01:42:38.102Z,100774.61
2023-04-16T01:45:06.030Z,100774.05
2023-04-16T01:47:32.755Z,100775.88
2023-04-16T01:49:59.928Z,100775.58
2023-04-16T01:52:26.665Z,100772.39
2023-04-16T01:54:53.316Z,100773.09
2023-04-16T01:57:20.538Z,100769.36
2023-04-16T01:59:47.267Z,100768.45
2023-04-16T02:02:15.698Z,100770.44
2023-04-16T02:04:44.684Z,100769.92
2023-04-16T02:07:12.228Z,100766.36
2023-04-16T02:09:40.174Z,100766.52
2023-04-16T02:12:06.972Z,100768.30
2023-04-16T02:14:34.756Z,100768.22
2023-04-16T02:17:02.142Z,100766.51
2023-04-16T02:19:41.057Z,100765.86
2023-04-16T02:22:08.505Z,100768.88
2023-04-16T02:24:37.131Z,100765.61
2023-04-16T02:27:07.251Z,100766.30
2023-04-16T02:29:34.369Z,100766.12
2023-04-16T02:32:07.699Z,100768.16
2023-04-16T02:34:34.864Z,100765.75
2023-04-16T02:37:01.676Z,100768.86
2023-04-16T02:39:28.773Z,100769.29
2023-04-16T02:41:57.330Z,100771.80
2023-04-16T02:44:24.056Z,100771.30
2023-04-16T02:46:50.968Z,100773.59
2023-04-16T02:49:19.362Z,100779.38
2023-04-16T02:51:49.084Z,100778.84
2023-04-16T02:54:16.321Z,100780.95
2023-04-16T02:56:43.295Z,100782.39
2023-04-16T02:59:10.499Z,100784.61
2023-04-16T03:01:38.093Z,100784.70
2023-04-16T03:04:05.197Z,100785.70
2023-04-16T03:06:32.730Z,100786.24
2023-04-16T03:08:59.445Z,100789.09
2023-04-16T03:11:26.095Z,100793.47
2023-04-16T03:13:53.195Z,100798.11
2023-04-16T03:16:20.044Z,100799.77
2023-04-16T03:18:46.733Z,100801.55
2023-04-16T03:21:13.408Z,100803.55
2023-04-16T03:23:40.319Z,100801.87
2023-04-16T03:26:06.962Z,100801.43
2023-04-16T03:28:35.238Z,100799.01
2023-04-16T03:31:02.044Z,100800.83
2023-04-16T03:33:29.207Z,100801.70
2023-04-16T03:35:56.922Z,100803.75
2023-04-16T03:38:25.185Z,100808.79
2023-04-16T03:40:53.326Z,100807.44
2023-04-16T03:43:19.981Z,100810.48
2023-04-16T03:45:46.883Z,100812.77
2023-04-16T03:48:13.550Z,100810.83
2023-04-16T03:50:40.389Z,100814.46
2023-04-16T03:53:08.612Z,100817.19
2023-04-16T03:55:35.623Z,100821.40
2023-04-16T03:58:04.207Z,100820.39
2023-04-16T04:00:31.878Z,100825.05
2023-04-16T04:03:03.756Z,100825.56
2023-04-16T04:05:36.127Z,100828.67
2023-04-16T04:08:03.665Z,100832.39
2023-04-16T04:10:32.474Z,100830.96
2023-04-16T04:13:00.415Z,100827.92
2023-04-16T04:15:27.450Z,100824.52
2023-04-16T04:17:54.921Z,100825.95
2023-04-16T04:20:23.259Z,100826.27
2023-04-16T04:22:50.693Z,100825.55
2023-04-16T04:25:17.431Z,100825.30
2023-04-16T04:27:44.065Z,100827.87
2023-04-16T04:30:11.322Z,100826.59
2023-04-16T04:32:38.466Z,100826.98
2023-04-16T04:35:05.956Z,100827.68
2023-04-16T04:37:32.850Z,100828.89
2023-04-16T04:40:00.506Z,100830.73
2023-04-16T04:42:28.772Z,100835.31
2023-04-16T04:44:57.037Z,100835.55
2023-04-16T04:47:24.306Z,100833.63
2023-04-16T04:49:52.810Z,100835.40
2023-04-16T04:52:20.276Z,100838.77
2023-04-16T04:54:47.647Z,100837.91
2023-04-16T04:57:15.346Z,100839.61
2023-04-16T04:59:43.360Z,100842.64
2023-04-16T05:02:11.781Z,100840.71
2023-04-16T05:04:39.729Z,100842.82
2023-04-16T05:07:06.727Z,100843.77
2023-04-16T05:09:34.341Z,100844.21
2023-04-16T05:12:01.502Z,100845.15
2023-04-16T05:14:28.987Z,100848.88
2023-04-16T05:16:55.922Z,100851.54
2023-04-16T05:19:23.593Z,100856.97
2023-04-16T05:21:50.431Z,100858.38
2023-04-16T05:24:17.284Z,100858.05
2023-04-16T05:26:44.561Z,100854.51
2023-04-16T05:29:11.495Z,100857.63
2023-04-16T05:31:38.985Z,100855.54
2023-04-16T05:34:05.704Z,100855.73
2023-04-16T05:36:33.806Z,100858.05
2023-04-16T05:39:00.584Z,100859.65
2023-04-16T05:41:28.792Z,100865.02
2023-04-16T05:43:56.414Z,100863.33
2023-04-16T05:46:23.318Z,100862.27
2023-04-16T05:48:50.052Z,100862.04
2023-04-16T05:51:16.631Z,100864.76
2023-04-16T05:53:43.553Z,100860.79
2023-04-16T05:56:10.374Z,100861.65
2023-04-16T05:58:41.207Z,100865.37
2023-04-16T06:01:07.862Z,100870.30
2023-04-16T06:03:34.746Z,100869.87
2023-04-16T06:06:01.868Z,100875.86
2023-04-16T06:08:29.910Z,100878.10
2023-04-16T06:10:57.145Z,100879.07
2023-04-16T06:13:24.298Z,100885.63
2023-04-16T06:15:50.901Z,100884.66
2023-04-16T06:18:22.890Z,100883.30
2023-04-16T06:20:50.185Z,100885.84
2023-04-16T06:23:17.127Z,100888.34
2023-04-16T06:25:44.325Z,100890.38
2023-04-16T06:28:11.861Z,100892.63
2023-04-16T06:30:38.801Z,100894.52
2023-04-16T06:33:05.974Z,100893.42
2023-04-16T06:35:33.447Z,100894.61
2023-04-16T06:38:00.383Z,100894.16
2023-04-16T06:40:27.056Z,100899.96
2023-04-16T06:42:54.093Z,100904.30
2023-04-16T06:45:21.178Z,100902.09
2023-04-16T06:47:50.388Z,100903.23
2023-04-16T06:50:17.511Z,100905.61
2023-04-16T06:52:45.084Z,100905.25
2023-04-16T06:55:12.075Z,100905.95
2023-04-16T06:57:40.309Z,100906.73
2023-04-16T07:00:08.369Z,100908.09
2023-04-16T07:02:35.533Z,100908.06
2023-04-16T07:05:02.840Z,100908.91
2023-04-16T07:07:30.392Z,100907.77
2023-04-16T07:09:58.683Z,100909.33
2023-04-16T07:12:26.629Z,100907.98
2023-04-16T07:14:54.416Z,100909.99
2023-04-16T07:17:21.540Z,100908.28
2023-04-16T07:19:49.166Z,100906.52
2023-04-16T07:22:16.271Z,100908.70
2023-04-16T07:24:43.091Z,100908.02
2023-04-16T07:27:10.978Z,100910.08
2023-04-16T07:29:37.847Z,100911.60
2023-04-16T07:32:07.523Z,100913.06
2023-04-16T07:34:34.399Z,100914.20
2023-04-16T07:37:01.491Z,100915.54
2023-04-16T07:39:28.670Z,100916.90
2023-04-16T07:41:55.292Z,100918.96
2023-04-16T07:44:21.964Z,100921.56
2023-04-16T07:46:49.077Z,100921.69
2023-04-16T07:49:15.808Z,100921.46
2023-04-16T07:51:42.465Z,100920.40
2023-04-16T07:54:10.148Z,100922.40
2023-04-16T07:56:37.365Z,100926.84
2023-04-16T07:59:18.375Z,100924.36
2023-04-16T08:01:49.873Z,100928.00
2023-04-16T08:04:22.398Z,100929.76
2023-04-16T08:06:51.098Z,100929.90
2023-04-16T08:09:19.569Z,100930.62
2023-04-16T08:11:48.646Z,100929.07
2023-04-16T08:14:16.406Z,100926.52
2023-04-16T08:16:43.250Z,100924.77
2023-04-16T08:19:10.314Z,100924.09
2023-04-16T08:21:38.098Z,100927.77
2023-04-16T08:24:05.449Z,100926.05
2023-04-16T08:26:32.120Z,100924.94
2023-04-16T08:28:58.845Z,100923.23
2023-04-16T08:31:25.677Z,100916.21
2023-04-16T08:33:52.660Z,100911.74
2023-04-16T08:36:20.177Z,100908.96
2023-04-16T08:38:51.641Z,100904.86
2023-04-16T08:41:18.644Z,100900.48
2023-04-16T08:43:45.555Z,100898.71
2023-04-16T08:46:12.491Z,100899.96
2023-04-16T08:48:39.240Z,100896.39
2023-04-16T08:51:06.020Z,100891.64
2023-04-16T08:53:36.984Z,100893.15
2023-04-16T08:56:04.523Z,100895.30
2023-04-16T08:58:33.438Z,100898.89
2023-04-16T09:01:02.223Z,100903.08
2023-04-16T09:03:32.334Z,100909.98
2023-04-16T09:06:02.634Z,100917.55
2023-04-16T09:08:31.026Z,100918.11
2023-04-16T09:10:57.733Z,100919.68
2023-04-16T09:13:25.269Z,100924.49
2023-04-16T09:15:56.617Z,100922.48
2023-04-16T09:18:24.441Z,100922.11
2023-04-16T09:20:51.549Z,100919.30
2023-04-16T09:23:18.975Z,100923.13
2023-04-16T09:25:45.829Z,100920.89
2023-04-16T09:28:12.522Z,100917.92
2023-04-16T09:30:40.937Z,100916.34
2023-04-16T09:33:21.672Z,100920.20
2023-04-16T09:35:50.186Z,100929.00
2023-04-16T09:38:16.997Z,100927.58
2023-04-16T09:40:44.040Z,100927.55
2023-04-16T09:43:15.165Z,100926.61
2023-04-16T09:45:52.077Z,100929.09
2023-04-16T09:48:37.020Z,100929.27
2023-04-16T09:51:05.664Z,100932.11
2023-04-16T09:53:32.664Z,100931.65
2023-04-16T09:56:00.855Z,100933.00
2023-04-16T09:58:28.570Z,100933.50
2023-04-16T10:01:02.339Z,100934.77
2023-04-16T10:03:31.305Z,100938.05
2023-04-16T10:06:14.032Z,100937.86
2023-04-16T10:08:50.862Z,100941.17
2023-04-16T10:11:18.584Z,100940.17
2023-04-16T10:13:45.829Z,100943.01
2023-04-16T10:16:12.844Z,100944.23
2023-04-16T10:18:41.784Z,100949.11
2023-04-16T10:21:11.570Z,100950.09
2023-04-16T10:23:39.422Z,100949.56
2023-04-16T10:26:06.097Z,100950.83
2023-04-16T10:28:35.093Z,100953.11
2023-04-16T10:31:03.485Z,100955.77
2023-04-16T10:33:39.311Z,100961.39
2023-04-16T10:36:13.734Z,100966.15
2023-04-16T10:38:48.846Z,100963.42
2023-04-16T10:49:03.172Z,100960.29
2023-04-16T10:51:36.464Z,100960.11
2023-04-16T10:54:04.659Z,100962.70
2023-04-16T10:56:33.542Z,100964.52
2023-04-16T10:59:04.378Z,100965.28
2023-04-16T11:01:32.767Z,100968.31
2023-04-16T11:04:04.727Z,100970.84
2023-04-16T11:06:32.920Z,100972.45
2023-04-16T11:09:00.937Z,100973.02
2023-04-16T11:11:29.367Z,100970.35
2023-04-16T11:13:57.605Z,100972.29
2023-04-16T11:24:00.219Z,100963.92
2023-04-16T11:26:29.289Z,100962.56
2023-04-16T11:28:57.416Z,100964.11
2023-04-16T11:31:27.335Z,100961.92
2023-04-16T11:33:56.694Z,100961.30
2023-04-16T11:36:27.399Z,100960.81
2023-04-16T11:39:02.069Z,100962.58
2023-04-16T11:41:30.347Z,100957.10
2023-04-16T11:43:58.336Z,100958.05
2023-04-16T11:46:38.324Z,100961.86
2023-04-16T11:49:06.318Z,100963.13
2023-04-16T11:51:42.233Z,100959.27
2023-04-16T11:54:12.106Z,100958.89
2023-04-16T11:56:46.911Z,100955.02
2023-04-16T11:59:23.266Z,100956.72
2023-04-16T12:01:58.058Z,100956.77
2023-04-16T12:04:27.096Z,100957.39
2023-04-16T12:07:08.572Z,100956.58
2023-04-16T12:09:43.049Z,100957.40
2023-04-16T12:12:31.932Z,100953.60
2023-04-16T12:15:03.914Z,100952.34
2023-04-16T12:17:33.430Z,100957.30
2023-04-16T12:20:06.048Z,100954.63
2023-04-16T12:22:37.007Z,100953.24
2023-04-16T12:25:13.031Z,100952.85
2023-04-16T12:27:52.164Z,100946.70
2023-04-16T12:30:23.038Z,100945.02
2023-04-16T12:32:52.516Z,100946.06
2023-04-16T12:35:31.664Z,100940.41
2023-04-16T12:38:00.375Z,100937.42
2023-04-16T12:40:28.514Z,100939.33
2023-04-16T12:42:56.865Z,100938.75
2023-04-16T12:45:25.196Z,100938.82
2023-04-16T12:47:53.450Z,100937.77
2023-04-16T12:50:22.108Z,100934.85
2023-04-16T12:52:50.900Z,100931.80
2023-04-16T12:55:19.158Z,100933.55
2023-04-16T12:57:49.087Z,100932.47
2023-04-16T13:00:17.436Z,100931.33
2023-04-16T13:02:45.727Z,100927.33
2023-04-16T13:05:17.317Z,100924.83
2023-04-16T13:07:45.605Z,100928.30
2023-04-16T13:10:13.933Z,100927.15
2023-04-16T13:12:42.641Z,100922.50
2023-04-16T13:15:11.125Z,100924.06
2023-04-16T13:17:39.248Z,100919.63
2023-04-16T13:20:08.016Z,100919.08
2023-04-16T13:22:36.119Z,100918.23
2023-04-16T13:25:05.093Z,100914.11
2023-04-16T13:27:33.218Z,100912.30
2023-04-16T13:30:01.364Z,100915.44
2023-04-16T13:32:29.672Z,100907.84
2023-04-16T13:34:57.682Z,100903.98
2023-04-16T13:37:25.834Z,100902.67
2023-04-16T13:39:53.851Z,100903.63
2023-04-16T13:42:22.254Z,100900.14
2023-04-16T13:44:53.311Z,100900.05
2023-04-16T13:47:21.404Z,100904.83
2023-04-16T13:49:49.451Z,100903.20
2023-04-16T13:52:17.517Z,100903.23
2023-04-16T13:54:45.670Z,100903.67
2023-04-16T13:57:20.515Z,100904.34
2023-04-16T13:59:48.810Z,100900.86
2023-04-16T14:02:17.319Z,100902.48
2023-04-16T14:04:46.316Z,100900.02
2023-04-16T14:07:15.816Z,100902.27
2023-04-16T14:09:44.196Z,100902.48
2023-04-16T14:12:12.400Z,100901.58
2023-04-16T14:14:41.069Z,100901.02
2023-04-16T14:17:09.151Z,100903.80
2023-04-16T14:19:37.652Z,100905.75
2023-04-16T14:22:06.974Z,100903.51
2023-04-16T14:24:36.958Z,100904.85
2023-04-16T14:27:05.219Z,100901.09
2023-04-16T14:29:33.547Z,100896.77
2023-04-16T14:32:02.047Z,100895.26
2023-04-16T14:34:30.852Z,100893.52
2023-04-16T14:36:59.038Z,100891.39
2023-04-16T14:39:27.271Z,100893.59
2023-04-16T14:41:55.348Z,100892.18
2023-04-16T14:44:23.597Z,100892.72
2023-04-16T14:46:51.637Z,100890.84
2023-04-16T14:49:19.892Z,100892.52
2023-04-16T14:51:48.401Z,100887.84
2023-04-16T14:54:16.921Z,100889.96
2023-04-16T14:56:45.783Z,100890.73
2023-04-16T14:59:13.767Z,100890.77
2023-04-16T15:01:42.898Z,100888.68
2023-04-16T15:04:11.208Z,100887.31
2023-04-16T15:06:39.351Z,100887.80
2023-04-16T15:09:08.859Z,100882.67
2023-04-16T15:11:37.203Z,100883.88
2023-04-16T15:14:05.590Z,100878.42
2023-04-16T15:16:34.069Z,100876.11
2023-04-16T15:19:04.374Z,100876.64
2023-04-16T15:21:33.334Z,100872.92
2023-04-16T15:24:01.779Z,100871.14
2023-04-16T15:26:30.534Z,100870.04
2023-04-16T15:28:58.839Z,100866.90
2023-04-16T15:31:27.539Z,100869.66
2023-04-16T15:33:56.306Z,100868.02
2023-04-16T15:36:24.385Z,100864.73
2023-04-16T15:38:53.179Z,100859.10
2023-04-16T15:41:21.894Z,100856.77
2023-04-16T15:43:50.113Z,100856.48
2023-04-16T15:46:35.122Z,100858.71
2023-04-16T15:49:03.488Z,100853.23
2023-04-16T15:51:32.478Z,100852.70
2023-04-16T15:54:00.578Z,100853.66
2023-04-16T15:56:28.938Z,100857.55
2023-04-16T15:58:57.339Z,100858.67
2023-04-16T16:01:25.591Z,100856.06
2023-04-16T16:03:54.581Z,100856.00
2023-04-16T16:06:23.322Z,100859.41
2023-04-16T16:08:51.712Z,100859.05
2023-04-16T16:11:20.614Z,100858.80
2023-04-16T16:13:49.019Z,100861.09
2023-04-16T16:16:17.690Z,100862.24
2023-04-16T16:18:46.009Z,100864.96
2023-04-16T16:21:15.402Z,100864.81
2023-04-16T16:23:43.684Z,100866.10
2023-04-16T16:26:11.938Z,100869.94
2023-04-16T16:28:41.452Z,100872.36
2023-04-16T16:31:09.525Z,100873.00
2023-04-16T16:33:40.433Z,100874.73
2023-04-16T16:36:12.420Z,100876.73
2023-04-16T16:38:41.381Z,100872.67
2023-04-16T16:41:09.920Z,100875.77
2023-04-16T16:43:38.565Z,100875.77
2023-04-16T16:46:07.680Z,100874.71
2023-04-16T16:48:36.464Z,100880.50
2023-04-16T16:51:04.671Z,100885.08
2023-04-16T16:53:32.889Z,100888.65
2023-04-16T16:56:02.925Z,100889.59
2023-04-16T16:58:31.954Z,100888.76
2023-04-16T17:01:00.411Z,100892.41
2023-04-16T17:03:28.899Z,100893.97
2023-04-16T17:05:57.157Z,100894.38
2023-04-16T17:08:25.588Z,100897.45
2023-04-16T17:10:54.135Z,100900.11
2023-04-16T17:13:25.251Z,100899.58
2023-04-16T17:15:53.439Z,100903.48
2023-04-16T17:18:21.730Z,100906.66
2023-04-16T17:20:50.134Z,100907.64
2023-04-16T17:23:18.910Z,100907.14
2023-04-16T17:25:47.335Z,100909.13
2023-04-16T17:28:16.156Z,100910.19
2023-04-16T17:30:44.833Z,100908.05
2023-04-16T17:33:12.967Z,100913.30
2023-04-16T17:35:41.497Z,100917.38
2023-04-16T17:38:09.776Z,100918.09
2023-04-16T17:40:38.461Z,100919.21
2023-04-16T17:43:06.481Z,100925.34
2023-04-16T17:45:34.911Z,100924.45
2023-04-16T17:48:03.483Z,100926.92
2023-04-16T17:50:31.811Z,100925.00
2023-04-16T17:53:03.852Z,100923.08
2023-04-16T17:55:32.523Z,100924.63
2023-04-16T17:58:00.980Z,100923.36
2023-04-16T18:00:29.243Z,100921.13
2023-04-16T18:02:58.496Z,100924.55
2023-04-16T18:05:27.555Z,100925.13
2023-04-16T18:08:01.633Z,100924.08
2023-04-16T18:10:31.714Z,100922.00
2023-04-16T18:12:59.912Z,100927.27
2023-04-16T18:15:27.994Z,100925.91
2023-04-16T18:17:56.172Z,100929.38
2023-04-16T18:20:24.442Z,100931.26
2023-04-16T18:22:52.873Z,100931.55
2023-04-16T18:25:32.214Z,100932.27
2023-04-16T18:28:03.979Z,100930.89
2023-04-16T18:30:32.300Z,100932.50
2023-04-16T18:33:26.305Z,100926.40
2023-04-16T18:35:50.008Z,100926.42
2023-04-16T18:38:18.038Z,100925.73
2023-04-16T18:40:47.160Z,100925.25
2023-04-16T18:43:16.196Z,100927.64
2023-04-16T18:45:44.337Z,100926.02
2023-04-16T18:48:12.934Z,100925.70
2023-04-16T18:50:41.278Z,100924.59
2023-04-16T18:53:09.465Z,100923.84
2023-04-16T18:55:38.163Z,100921.02
2023-04-16T18:58:06.726Z,100920.20
2023-04-16T19:00:36.661Z,100919.35
2023-04-16T19:03:07.168Z,100918.64
2023-04-16T19:05:35.589Z,100920.02
2023-04-16T19:08:04.710Z,100919.14
2023-04-16T19:10:33.143Z,100917.98
2023-04-16T19:13:01.323Z,100916.86
2023-04-16T19:15:32.632Z,100915.86
2023-04-16T19:18:02.336Z,100914.13
2023-04-16T19:20:30.430Z,100916.45
2023-04-16T19:22:58.703Z,100911.57
2023-04-16T19:25:28.019Z,100908.05
2023-04-16T19:27:56.785Z,100908.69
2023-04-16T19:30:25.023Z,100905.85
2023-04-16T19:32:55.313Z,100907.08
2023-04-16T19:35:24.218Z,100902.70
2023-04-16T19:37:52.880Z,100903.65
2023-04-16T19:40:21.282Z,100904.45
2023-04-16T19:42:49.963Z,100906.90
2023-04-16T19:45:18.503Z,100902.77
2023-04-16T19:47:49.280Z,100905.98
2023-04-16T19:50:17.759Z,100902.20
2023-04-16T19:52:46.950Z,100902.59
2023-04-16T19:55:15.577Z,100900.09
2023-04-16T19:57:43.731Z,100900.49
2023-04-16T20:07:53.804Z,100900.17
2023-04-16T20:10:22.478Z,100900.38
2023-04-16T20:12:51.116Z,100903.99
2023-04-16T20:15:19.516Z,100905.77
2023-04-16T20:17:48.550Z,100904.97
2023-04-16T20:20:17.033Z,100908.58
2023-04-16T20:22:45.415Z,100908.18
2023-04-16T20:25:14.569Z,100908.84
2023-04-16T20:27:43.626Z,100905.42
2023-04-16T20:30:13.084Z,100902.73
2023-04-16T20:32:41.213Z,100904.45
2023-04-16T20:35:11.636Z,100909.67
2023-04-16T20:37:42.278Z,100911.39
2023-04-16T20:40:11.223Z,100910.64
2023-04-16T20:42:41.065Z,100908.95
2023-04-16T20:45:11.321Z,100911.70
2023-04-16T20:47:39.486Z,100911.38
2023-04-16T20:50:08.801Z,100913.07
2023-04-16T20:52:37.662Z,100911.34
2023-04-16T20:55:08.327Z,100910.79
2023-04-16T20:57:36.799Z,100909.85
2023-04-16T21:00:09.180Z,100907.73
2023-04-16T21:02:37.791Z,100910.66
2023-04-16T21:05:09.081Z,100913.05
2023-04-16T21:07:37.808Z,100907.73
2023-04-16T21:10:06.999Z,100905.60
2023-04-16T21:12:36.106Z,100905.98
2023-04-16T21:15:05.154Z,100906.77
2023-04-16T21:17:33.491Z,100902.77
2023-04-16T21:20:01.611Z,100901.13
2023-04-16T21:22:30.067Z,100896.48
2023-04-16T21:24:58.290Z,100894.52
2023-04-16T21:27:26.366Z,100892.73
2023-04-16T21:29:54.695Z,100890.32
2023-04-16T21:32:23.611Z,100887.89
2023-04-16T21:34:51.718Z,100887.59
2023-04-16T21:37:20.252Z,100890.11
2023-04-16T21:39:48.398Z,100888.73
2023-04-16T21:42:16.351Z,100886.69
2023-04-16T21:44:44.359Z,100882.55
2023-04-16T21:47:12.665Z,100884.17
2023-04-16T21:49:42.416Z,100883.37
2023-04-16T21:52:22.501Z,100882.21
2023-04-16T21:54:51.189Z,100885.43
2023-04-16T21:57:19.420Z,100884.56
2023-04-16T21:59:47.364Z,100884.63
2023-04-16T22:02:15.636Z,100886.44
2023-04-16T22:04:43.979Z,100887.20
2023-04-16T22:07:12.250Z,100887.61
2023-04-16T22:09:41.668Z,100886.24
2023-04-16T22:12:12.900Z,100887.67
2023-04-16T22:14:49.140Z,100885.43
2023-04-16T22:17:27.966Z,100890.05
2023-04-16T22:19:57.287Z,100888.48
2023-04-16T22:22:25.591Z,100888.39
2023-04-16T22:24:53.953Z,100893.10
2023-04-16T22:27:22.215Z,100888.90
2023-04-16T22:29:50.952Z,100887.11
2023-04-16T22:32:19.617Z,100884.18
2023-04-16T22:34:47.760Z,100885.81
2023-04-16T22:37:16.153Z,100888.77
2023-04-16T22:39:45.629Z,100884.10
2023-04-16T22:42:14.029Z,100878.89
2023-04-16T22:44:42.265Z,100878.34
2023-04-16T22:47:11.097Z,100879.17
2023-04-16T22:49:39.468Z,100878.69
2023-04-16T22:52:07.907Z,100877.17
2023-04-16T22:54:36.678Z,100880.39
2023-04-16T22:57:05.326Z,100879.50
2023-04-16T22:59:34.516Z,100882.14
2023-04-16T23:02:02.768Z,100879.89
2023-04-16T23:04:33.037Z,100882.26
2023-04-16T23:07:01.801Z,100883.38
2023-04-16T23:09:29.958Z,100878.67
2023-04-16T23:11:58.256Z,100875.92
2023-04-16T23:14:26.836Z,100877.01
2023-04-16T23:16:55.050Z,100884.96
2023-04-16T23:19:23.358Z,100880.94
2023-04-16T23:21:52.081Z,100879.53
2023-04-16T23:24:20.435Z,100877.42
2023-04-16T23:26:48.849Z,100879.41
2023-04-16T23:29:17.149Z,100878.35
2023-04-16T23:31:46.041Z,100880.14
2023-04-16T23:34:14.630Z,100881.59
2023-04-16T23:36:43.305Z,100883.73
2023-04-16T23:39:11.860Z,100881.86
2023-04-16T23:41:40.963Z,100877.54
2023-04-16T23:44:09.447Z,100879.30
2023-04-16T23:46:39.533Z,100878.13
2023-04-16T23:49:08.241Z,100879.66
2023-04-16T23:51:37.274Z,100881.86
2023-04-16T23:54:05.540Z,100883.36
2023-04-16T23:56:34.155Z,100881.41
2023-04-16T23:59:02.926Z,100882.55
